createdAt,value
2023-04-11T00:14:13.339Z,33.67
2023-04-11T00:35:06.903Z,32.73
2023-04-11T01:00:16.899Z,36.97
2023-04-11T01:36:03.252Z,38.33
2023-04-11T02:06:14.156Z,43.60
2023-04-11T02:51:44.056Z,46.13
2023-04-11T03:17:12.003Z,50.77
2023-04-11T03:47:09.121Z,53.90
2023-04-11T04:02:50.772Z,58.67
2023-04-11T04:28:20.509Z,67.30
2023-04-11T04:53:02.090Z,65.90
2023-04-11T05:13:20.321Z,62.80
2023-04-11T05:38:44.830Z,48.23
2023-04-11T05:59:21.576Z,40.53
2023-04-11T06:34:53.341Z,27.57
2023-04-11T06:54:59.375Z,22.37
2023-04-11T07:20:53.429Z,15.67
2023-04-11T08:37:00.993Z,5.47
2023-04-11T09:02:09.357Z,5.47
2023-04-11T09:47:57.795Z,2.60
2023-04-11T10:43:48.935Z,5.50
2023-04-11T11:24:28.878Z,4.70
2023-04-11T11:54:49.143Z,5.53
2023-04-11T12:24:41.076Z,5.80
2023-04-11T12:55:15.173Z,6.47
2023-04-11T13:16:05.738Z,7.10
2023-04-11T13:41:24.738Z,6.97
2023-04-11T14:11:38.461Z,6.77
2023-04-11T14:41:47.638Z,5.90
2023-04-11T15:02:21.642Z,5.73
2023-04-11T15:58:23.537Z,6.00
2023-04-11T16:13:06.943Z,6.40
2023-04-11T16:43:57.973Z,7.07
2023-04-11T17:04:13.166Z,7.50
2023-04-11T17:34:49.674Z,8.00
2023-04-11T18:04:49.363Z,8.53
2023-04-11T18:25:26.716Z,10.77
2023-04-11T18:45:50.597Z,12.83
2023-04-11T19:15:47.644Z,14.80
2023-04-11T19:36:12.853Z,16.07
2023-04-11T20:01:37.069Z,18.03
2023-04-11T20:27:07.621Z,26.53
2023-04-11T20:57:00.638Z,18.97
2023-04-11T22:08:40.273Z,20.33
2023-04-11T23:24:19.641Z,19.47
2023-04-11T23:49:51.448Z,22.47
